sensor_id;sensor_type;location;lat;lon;timestamp;temperature;humidity
14140;DHT22;7150;53.514;9.988;2022-12-16T00:01:49;6.10;78.70
14140;DHT22;7150;53.514;9.988;2022-12-16T00:04:14;6.10;78.60
14140;DHT22;7150;53.514;9.988;2022-12-16T00:06:42;6.10;78.50
14140;DHT22;7150;53.514;9.988;2022-12-16T00:09:08;6.10;78.30
14140;DHT22;7150;53.514;9.988;2022-12-16T00:11:33;6.10;78.30
14140;DHT22;7150;53.514;9.988;2022-12-16T00:13:59;6.10;78.20
14140;DHT22;7150;53.514;9.988;2022-12-16T00:16:25;6.10;78.30
14140;DHT22;7150;53.514;9.988;2022-12-16T00:18:50;6.00;78.30
14140;DHT22;7150;53.514;9.988;2022-12-16T00:21:16;6.00;78.30
14140;DHT22;7150;53.514;9.988;2022-12-16T00:23:44;6.00;78.30
14140;DHT22;7150;53.514;9.988;2022-12-16T00:26:11;6.10;78.50
14140;DHT22;7150;53.514;9.988;2022-12-16T00:28:37;6.00;78.50
14140;DHT22;7150;53.514;9.988;2022-12-16T00:31:03;6.10;78.60
14140;DHT22;7150;53.514;9.988;2022-12-16T00:33:29;6.00;78.70
14140;DHT22;7150;53.514;9.988;2022-12-16T00:35:55;6.00;78.70
14140;DHT22;7150;53.514;9.988;2022-12-16T00:38:22;6.00;78.70
14140;DHT22;7150;53.514;9.988;2022-12-16T00:40:47;6.00;78.50
14140;DHT22;7150;53.514;9.988;2022-12-16T00:43:13;6.00;78.60
14140;DHT22;7150;53.514;9.988;2022-12-16T00:45:39;6.00;78.50
14140;DHT22;7150;53.514;9.988;2022-12-16T00:48:05;6.00;78.60
14140;DHT22;7150;53.514;9.988;2022-12-16T00:50:30;6.00;78.50
14140;DHT22;7150;53.514;9.988;2022-12-16T00:52:56;6.00;78.50
14140;DHT22;7150;53.514;9.988;2022-12-16T00:55:21;6.00;78.40
14140;DHT22;7150;53.514;9.988;2022-12-16T00:57:47;6.00;78.50
14140;DHT22;7150;53.514;9.988;2022-12-16T01:00:14;6.00;78.40
14140;DHT22;7150;53.514;9.988;2022-12-16T01:02:41;6.00;78.50
14140;DHT22;7150;53.514;9.988;2022-12-16T01:05:08;6.00;78.50
14140;DHT22;7150;53.514;9.988;2022-12-16T01:07:34;6.00;78.50
14140;DHT22;7150;53.514;9.988;2022-12-16T01:10:00;6.00;78.60
14140;DHT22;7150;53.514;9.988;2022-12-16T01:12:26;6.00;78.50
14140;DHT22;7150;53.514;9.988;2022-12-16T01:14:51;6.00;78.30
14140;DHT22;7150;53.514;9.988;2022-12-16T01:17:17;6.00;78.40
14140;DHT22;7150;53.514;9.988;2022-12-16T01:19:42;6.00;78.30
14140;DHT22;7150;53.514;9.988;2022-12-16T01:22:08;6.00;78.20
14140;DHT22;7150;53.514;9.988;2022-12-16T01:24:33;6.00;78.10
14140;DHT22;7150;53.514;9.988;2022-12-16T01:26:59;6.00;78.20
14140;DHT22;7150;53.514;9.988;2022-12-16T01:29:24;5.90;78.20
14140;DHT22;7150;53.514;9.988;2022-12-16T01:31:50;5.90;78.20
14140;DHT22;7150;53.514;9.988;2022-12-16T01:34:15;5.90;78.30
14140;DHT22;7150;53.514;9.988;2022-12-16T01:36:41;5.90;78.20
14140;DHT22;7150;53.514;9.988;2022-12-16T01:39:09;5.90;78.30
14140;DHT22;7150;53.514;9.988;2022-12-16T01:41:35;5.90;78.20
14140;DHT22;7150;53.514;9.988;2022-12-16T01:44:22;5.90;77.90
14140;DHT22;7150;53.514;9.988;2022-12-16T01:46:53;5.90;77.90
14140;DHT22;7150;53.514;9.988;2022-12-16T01:49:26;5.90;77.90
14140;DHT22;7150;53.514;9.988;2022-12-16T01:51:54;5.90;78.00
14140;DHT22;7150;53.514;9.988;2022-12-16T01:54:25;5.90;78.40
14140;DHT22;7150;53.514;9.988;2022-12-16T01:57:16;5.90;78.30
14140;DHT22;7150;53.514;9.988;2022-12-16T01:59:46;5.90;78.20
14140;DHT22;7150;53.514;9.988;2022-12-16T02:02:13;5.90;78.30
14140;DHT22;7150;53.514;9.988;2022-12-16T02:04:39;5.90;78.30
14140;DHT22;7150;53.514;9.988;2022-12-16T02:07:25;5.90;78.40
14140;DHT22;7150;53.514;9.988;2022-12-16T02:09:51;5.90;78.50
14140;DHT22;7150;53.514;9.988;2022-12-16T02:12:25;5.90;78.50
14140;DHT22;7150;53.514;9.988;2022-12-16T02:15:03;5.90;78.60
14140;DHT22;7150;53.514;9.988;2022-12-16T02:17:50;5.90;78.60
14140;DHT22;7150;53.514;9.988;2022-12-16T02:29:51;5.90;78.40
14140;DHT22;7150;53.514;9.988;2022-12-16T02:32:25;5.80;78.30
14140;DHT22;7150;53.514;9.988;2022-12-16T02:38:11;5.80;79.10
14140;DHT22;7150;53.514;9.988;2022-12-16T02:40:56;5.90;78.40
14140;DHT22;7150;53.514;9.988;2022-12-16T02:43:51;5.90;78.20
14140;DHT22;7150;53.514;9.988;2022-12-16T02:46:20;5.90;78.20
14140;DHT22;7150;53.514;9.988;2022-12-16T02:48:47;5.90;78.30
14140;DHT22;7150;53.514;9.988;2022-12-16T02:51:12;5.80;78.10
14140;DHT22;7150;53.514;9.988;2022-12-16T02:53:40;5.80;78.10
14140;DHT22;7150;53.514;9.988;2022-12-16T03:01:56;5.70;77.90
14140;DHT22;7150;53.514;9.988;2022-12-16T03:04:35;5.70;78.00
14140;DHT22;7150;53.514;9.988;2022-12-16T03:07:03;5.70;77.90
14140;DHT22;7150;53.514;9.988;2022-12-16T03:09:32;5.60;78.00
14140;DHT22;7150;53.514;9.988;2022-12-16T03:12:02;5.60;78.60
14140;DHT22;7150;53.514;9.988;2022-12-16T03:14:31;5.60;77.90
14140;DHT22;7150;53.514;9.988;2022-12-16T03:16:58;5.60;77.80
14140;DHT22;7150;53.514;9.988;2022-12-16T03:19:25;5.50;77.90
14140;DHT22;7150;53.514;9.988;2022-12-16T03:22:16;5.50;78.10
14140;DHT22;7150;53.514;9.988;2022-12-16T03:24:43;5.50;78.00
14140;DHT22;7150;53.514;9.988;2022-12-16T03:27:14;5.50;78.20
14140;DHT22;7150;53.514;9.988;2022-12-16T03:32:40;5.50;78.30
14140;DHT22;7150;53.514;9.988;2022-12-16T03:35:22;5.50;78.30
14140;DHT22;7150;53.514;9.988;2022-12-16T03:37:52;5.40;78.30
14140;DHT22;7150;53.514;9.988;2022-12-16T03:40:19;5.40;78.30
14140;DHT22;7150;53.514;9.988;2022-12-16T03:42:46;5.30;78.60
14140;DHT22;7150;53.514;9.988;2022-12-16T03:45:16;5.30;78.90
14140;DHT22;7150;53.514;9.988;2022-12-16T03:47:48;5.30;78.80
14140;DHT22;7150;53.514;9.988;2022-12-16T03:50:14;5.30;78.60
14140;DHT22;7150;53.514;9.988;2022-12-16T03:52:40;5.30;78.70
14140;DHT22;7150;53.514;9.988;2022-12-16T03:55:05;5.30;78.50
14140;DHT22;7150;53.514;9.988;2022-12-16T03:57:31;5.20;78.40
14140;DHT22;7150;53.514;9.988;2022-12-16T03:59:56;5.20;78.40
14140;DHT22;7150;53.514;9.988;2022-12-16T04:02:22;5.20;78.60
14140;DHT22;7150;53.514;9.988;2022-12-16T04:04:47;5.20;78.50
14140;DHT22;7150;53.514;9.988;2022-12-16T04:07:13;5.20;78.50
14140;DHT22;7150;53.514;9.988;2022-12-16T04:09:45;5.20;78.30
14140;DHT22;7150;53.514;9.988;2022-12-16T04:12:10;5.20;78.20
14140;DHT22;7150;53.514;9.988;2022-12-16T04:14:54;5.20;78.30
14140;DHT22;7150;53.514;9.988;2022-12-16T04:17:39;5.20;78.30
14140;DHT22;7150;53.514;9.988;2022-12-16T04:20:32;5.10;78.10
14140;DHT22;7150;53.514;9.988;2022-12-16T04:23:19;5.10;78.00
14140;DHT22;7150;53.514;9.988;2022-12-16T04:26:04;5.10;77.80
14140;DHT22;7150;53.514;9.988;2022-12-16T04:28:33;5.00;77.80
14140;DHT22;7150;53.514;9.988;2022-12-16T04:30:59;5.00;77.70
14140;DHT22;7150;53.514;9.988;2022-12-16T04:33:24;5.00;77.60
14140;DHT22;7150;53.514;9.988;2022-12-16T04:36:09;5.00;77.60
14140;DHT22;7150;53.514;9.988;2022-12-16T04:38:53;5.00;77.60
14140;DHT22;7150;53.514;9.988;2022-12-16T04:41:37;5.00;77.70
14140;DHT22;7150;53.514;9.988;2022-12-16T04:44:21;5.00;77.80
14140;DHT22;7150;53.514;9.988;2022-12-16T04:47:05;4.90;77.70
14140;DHT22;7150;53.514;9.988;2022-12-16T04:49:50;4.90;77.80
14140;DHT22;7150;53.514;9.988;2022-12-16T04:52:34;4.90;78.00
14140;DHT22;7150;53.514;9.988;2022-12-16T04:55:18;4.90;78.20
14140;DHT22;7150;53.514;9.988;2022-12-16T04:58:15;4.90;78.30
14140;DHT22;7150;53.514;9.988;2022-12-16T05:01:00;4.90;78.10
14140;DHT22;7150;53.514;9.988;2022-12-16T05:03:44;4.80;78.10
14140;DHT22;7150;53.514;9.988;2022-12-16T05:06:28;4.80;78.30
14140;DHT22;7150;53.514;9.988;2022-12-16T05:09:12;4.80;78.40
14140;DHT22;7150;53.514;9.988;2022-12-16T05:11:56;4.80;78.20
14140;DHT22;7150;53.514;9.988;2022-12-16T05:14:40;4.70;78.20
14140;DHT22;7150;53.514;9.988;2022-12-16T05:17:24;4.70;78.30
14140;DHT22;7150;53.514;9.988;2022-12-16T05:20:08;4.70;78.40
14140;DHT22;7150;53.514;9.988;2022-12-16T05:22:55;4.70;78.50
14140;DHT22;7150;53.514;9.988;2022-12-16T05:25:39;4.70;78.50
14140;DHT22;7150;53.514;9.988;2022-12-16T05:28:23;4.70;78.30
14140;DHT22;7150;53.514;9.988;2022-12-16T05:31:18;4.80;78.30
14140;DHT22;7150;53.514;9.988;2022-12-16T05:34:02;4.70;78.30
14140;DHT22;7150;53.514;9.988;2022-12-16T05:36:46;4.70;78.50
14140;DHT22;7150;53.514;9.988;2022-12-16T05:39:30;4.70;78.80
14140;DHT22;7150;53.514;9.988;2022-12-16T05:42:14;4.70;79.00
14140;DHT22;7150;53.514;9.988;2022-12-16T05:44:58;4.70;79.00
14140;DHT22;7150;53.514;9.988;2022-12-16T05:47:42;4.70;79.20
14140;DHT22;7150;53.514;9.988;2022-12-16T05:50:26;4.70;79.30
14140;DHT22;7150;53.514;9.988;2022-12-16T05:53:10;4.70;79.40
14140;DHT22;7150;53.514;9.988;2022-12-16T05:55:54;4.70;79.50
14140;DHT22;7150;53.514;9.988;2022-12-16T05:58:39;4.70;79.50
14140;DHT22;7150;53.514;9.988;2022-12-16T06:01:23;4.70;79.50
14140;DHT22;7150;53.514;9.988;2022-12-16T06:04:07;4.70;79.50
14140;DHT22;7150;53.514;9.988;2022-12-16T06:06:51;4.70;79.40
14140;DHT22;7150;53.514;9.988;2022-12-16T06:09:36;4.80;79.30
14140;DHT22;7150;53.514;9.988;2022-12-16T06:12:20;4.80;79.10
14140;DHT22;7150;53.514;9.988;2022-12-16T06:15:04;4.80;79.00
14140;DHT22;7150;53.514;9.988;2022-12-16T06:17:49;4.70;79.60
14140;DHT22;7150;53.514;9.988;2022-12-16T06:20:35;4.70;79.20
14140;DHT22;7150;53.514;9.988;2022-12-16T06:23:19;4.70;79.40
14140;DHT22;7150;53.514;9.988;2022-12-16T06:26:03;4.70;79.30
14140;DHT22;7150;53.514;9.988;2022-12-16T06:28:48;4.70;79.10
14140;DHT22;7150;53.514;9.988;2022-12-16T06:31:32;4.70;79.20
14140;DHT22;7150;53.514;9.988;2022-12-16T06:34:36;4.70;79.00
14140;DHT22;7150;53.514;9.988;2022-12-16T06:37:30;4.60;78.80
14140;DHT22;7150;53.514;9.988;2022-12-16T06:40:14;4.60;78.60
14140;DHT22;7150;53.514;9.988;2022-12-16T06:42:58;4.70;78.60
14140;DHT22;7150;53.514;9.988;2022-12-16T06:45:42;4.70;78.40
14140;DHT22;7150;53.514;9.988;2022-12-16T06:48:26;4.60;78.70
14140;DHT22;7150;53.514;9.988;2022-12-16T06:51:10;4.70;79.00
14140;DHT22;7150;53.514;9.988;2022-12-16T06:53:54;4.70;79.00
14140;DHT22;7150;53.514;9.988;2022-12-16T06:56:38;4.60;79.00
14140;DHT22;7150;53.514;9.988;2022-12-16T06:59:22;4.70;79.10
14140;DHT22;7150;53.514;9.988;2022-12-16T07:02:09;4.70;79.10
14140;DHT22;7150;53.514;9.988;2022-12-16T07:04:54;4.70;79.20
14140;DHT22;7150;53.514;9.988;2022-12-16T07:07:38;4.70;79.10
14140;DHT22;7150;53.514;9.988;2022-12-16T07:10:22;4.70;79.10
14140;DHT22;7150;53.514;9.988;2022-12-16T07:13:06;4.70;79.20
14140;DHT22;7150;53.514;9.988;2022-12-16T07:15:50;4.80;79.20
14140;DHT22;7150;53.514;9.988;2022-12-16T07:18:33;4.70;79.20
14140;DHT22;7150;53.514;9.988;2022-12-16T07:21:17;4.70;79.40
14140;DHT22;7150;53.514;9.988;2022-12-16T07:24:02;4.80;79.60
14140;DHT22;7150;53.514;9.988;2022-12-16T07:26:46;4.80;80.20
14140;DHT22;7150;53.514;9.988;2022-12-16T07:29:30;4.80;79.40
14140;DHT22;7150;53.514;9.988;2022-12-16T07:32:14;4.80;79.50
14140;DHT22;7150;53.514;9.988;2022-12-16T07:34:58;4.90;79.70
14140;DHT22;7150;53.514;9.988;2022-12-16T07:37:42;4.90;79.70
14140;DHT22;7150;53.514;9.988;2022-12-16T07:40:26;4.90;79.70
14140;DHT22;7150;53.514;9.988;2022-12-16T07:43:10;4.90;79.60
14140;DHT22;7150;53.514;9.988;2022-12-16T07:45:54;4.90;79.40
14140;DHT22;7150;53.514;9.988;2022-12-16T07:48:38;5.00;79.60
14140;DHT22;7150;53.514;9.988;2022-12-16T07:51:22;5.00;79.60
14140;DHT22;7150;53.514;9.988;2022-12-16T07:54:06;5.00;80.00
14140;DHT22;7150;53.514;9.988;2022-12-16T07:56:50;5.00;80.70
14140;DHT22;7150;53.514;9.988;2022-12-16T07:59:34;5.00;80.00
14140;DHT22;7150;53.514;9.988;2022-12-16T08:02:18;5.10;80.00
14140;DHT22;7150;53.514;9.988;2022-12-16T08:05:02;5.10;79.90
14140;DHT22;7150;53.514;9.988;2022-12-16T08:07:46;5.10;79.80
14140;DHT22;7150;53.514;9.988;2022-12-16T08:10:30;5.10;79.80
14140;DHT22;7150;53.514;9.988;2022-12-16T08:13:14;5.20;79.80
14140;DHT22;7150;53.514;9.988;2022-12-16T08:15:58;5.20;79.60
14140;DHT22;7150;53.514;9.988;2022-12-16T08:18:42;5.20;79.60
14140;DHT22;7150;53.514;9.988;2022-12-16T08:21:26;5.20;79.70
14140;DHT22;7150;53.514;9.988;2022-12-16T08:24:10;5.20;79.60
14140;DHT22;7150;53.514;9.988;2022-12-16T08:26:54;5.20;79.40
14140;DHT22;7150;53.514;9.988;2022-12-16T08:29:38;5.20;79.40
14140;DHT22;7150;53.514;9.988;2022-12-16T08:32:22;5.20;79.50
14140;DHT22;7150;53.514;9.988;2022-12-16T08:35:06;5.20;79.60
14140;DHT22;7150;53.514;9.988;2022-12-16T08:38:01;5.20;79.60
14140;DHT22;7150;53.514;9.988;2022-12-16T08:40:45;5.20;79.50
14140;DHT22;7150;53.514;9.988;2022-12-16T08:43:31;5.30;79.70
14140;DHT22;7150;53.514;9.988;2022-12-16T08:46:15;5.30;79.60
14140;DHT22;7150;53.514;9.988;2022-12-16T08:48:59;5.30;79.50
14140;DHT22;7150;53.514;9.988;2022-12-16T08:51:43;5.30;79.40
14140;DHT22;7150;53.514;9.988;2022-12-16T08:54:27;5.30;79.20
14140;DHT22;7150;53.514;9.988;2022-12-16T08:57:11;5.30;79.00
14140;DHT22;7150;53.514;9.988;2022-12-16T08:59:55;5.40;79.10
14140;DHT22;7150;53.514;9.988;2022-12-16T09:02:39;5.40;79.00
14140;DHT22;7150;53.514;9.988;2022-12-16T09:05:23;5.40;79.00
14140;DHT22;7150;53.514;9.988;2022-12-16T09:08:07;5.40;79.20
14140;DHT22;7150;53.514;9.988;2022-12-16T09:10:51;5.40;79.10
14140;DHT22;7150;53.514;9.988;2022-12-16T09:13:35;5.40;79.00
14140;DHT22;7150;53.514;9.988;2022-12-16T09:16:19;5.50;78.90
14140;DHT22;7150;53.514;9.988;2022-12-16T09:19:04;5.50;78.90
14140;DHT22;7150;53.514;9.988;2022-12-16T09:21:48;5.50;78.90
14140;DHT22;7150;53.514;9.988;2022-12-16T09:24:32;5.50;79.00
14140;DHT22;7150;53.514;9.988;2022-12-16T09:27:16;5.50;79.00
14140;DHT22;7150;53.514;9.988;2022-12-16T09:30:00;5.50;79.00
14140;DHT22;7150;53.514;9.988;2022-12-16T09:32:44;5.50;78.90
14140;DHT22;7150;53.514;9.988;2022-12-16T09:35:29;5.50;78.80
14140;DHT22;7150;53.514;9.988;2022-12-16T09:38:14;5.50;78.60
14140;DHT22;7150;53.514;9.988;2022-12-16T09:44:19;5.50;78.40
14140;DHT22;7150;53.514;9.988;2022-12-16T09:50:26;5.50;78.60
14140;DHT22;7150;53.514;9.988;2022-12-16T09:53:18;5.50;78.70
14140;DHT22;7150;53.514;9.988;2022-12-16T09:56:05;5.50;78.70
14140;DHT22;7150;53.514;9.988;2022-12-16T09:58:54;5.50;78.50
14140;DHT22;7150;53.514;9.988;2022-12-16T10:01:41;5.50;78.40
14140;DHT22;7150;53.514;9.988;2022-12-16T10:04:25;5.50;78.30
14140;DHT22;7150;53.514;9.988;2022-12-16T10:07:17;5.50;78.40
14140;DHT22;7150;53.514;9.988;2022-12-16T10:13:47;5.50;78.40
14140;DHT22;7150;53.514;9.988;2022-12-16T10:16:44;5.50;78.50
14140;DHT22;7150;53.514;9.988;2022-12-16T10:20:03;5.50;78.80
14140;DHT22;7150;53.514;9.988;2022-12-16T10:23:09;5.50;78.90
14140;DHT22;7150;53.514;9.988;2022-12-16T10:26:02;5.50;78.90
14140;DHT22;7150;53.514;9.988;2022-12-16T10:28:52;5.50;79.00
14140;DHT22;7150;53.514;9.988;2022-12-16T10:31:38;5.60;78.90
14140;DHT22;7150;53.514;9.988;2022-12-16T10:34:28;5.60;78.60
14140;DHT22;7150;53.514;9.988;2022-12-16T10:37:20;5.60;78.70
14140;DHT22;7150;53.514;9.988;2022-12-16T10:40:16;5.60;78.60
14140;DHT22;7150;53.514;9.988;2022-12-16T10:43:34;5.60;78.70
14140;DHT22;7150;53.514;9.988;2022-12-16T10:46:24;5.70;78.70
14140;DHT22;7150;53.514;9.988;2022-12-16T10:49:14;5.60;78.60
14140;DHT22;7150;53.514;9.988;2022-12-16T10:51:58;5.60;78.70
14140;DHT22;7150;53.514;9.988;2022-12-16T10:54:48;5.60;78.50
14140;DHT22;7150;53.514;9.988;2022-12-16T11:00:51;5.70;78.60
14140;DHT22;7150;53.514;9.988;2022-12-16T11:03:38;5.70;78.60
14140;DHT22;7150;53.514;9.988;2022-12-16T11:06:25;5.70;78.50
14140;DHT22;7150;53.514;9.988;2022-12-16T11:09:26;5.70;78.50
14140;DHT22;7150;53.514;9.988;2022-12-16T11:12:24;5.70;78.50
14140;DHT22;7150;53.514;9.988;2022-12-16T11:15:26;5.70;78.50
14140;DHT22;7150;53.514;9.988;2022-12-16T11:18:28;5.70;78.50
14140;DHT22;7150;53.514;9.988;2022-12-16T11:21:18;5.60;78.70
14140;DHT22;7150;53.514;9.988;2022-12-16T11:24:09;5.70;78.80
14140;DHT22;7150;53.514;9.988;2022-12-16T11:26:59;5.60;78.50
14140;DHT22;7150;53.514;9.988;2022-12-16T11:29:55;5.60;78.60
14140;DHT22;7150;53.514;9.988;2022-12-16T11:32:55;5.70;78.90
14140;DHT22;7150;53.514;9.988;2022-12-16T11:35:43;5.70;78.70
14140;DHT22;7150;53.514;9.988;2022-12-16T11:38:38;5.70;78.80
14140;DHT22;7150;53.514;9.988;2022-12-16T11:41:27;5.70;78.60
14140;DHT22;7150;53.514;9.988;2022-12-16T11:44:16;5.70;78.60
14140;DHT22;7150;53.514;9.988;2022-12-16T11:47:01;5.70;78.40
14140;DHT22;7150;53.514;9.988;2022-12-16T11:49:45;5.70;78.30
14140;DHT22;7150;53.514;9.988;2022-12-16T11:52:30;5.70;78.40
14140;DHT22;7150;53.514;9.988;2022-12-16T11:55:26;5.70;78.40
14140;DHT22;7150;53.514;9.988;2022-12-16T11:58:25;5.70;78.30
14140;DHT22;7150;53.514;9.988;2022-12-16T12:01:20;5.70;78.40
14140;DHT22;7150;53.514;9.988;2022-12-16T12:04:07;5.70;78.60
14140;DHT22;7150;53.514;9.988;2022-12-16T12:10:11;5.70;78.50
14140;DHT22;7150;53.514;9.988;2022-12-16T12:22:57;5.80;78.60
14140;DHT22;7150;53.514;9.988;2022-12-16T12:26:12;5.70;78.60
14140;DHT22;7150;53.514;9.988;2022-12-16T12:29:40;5.80;78.70
14140;DHT22;7150;53.514;9.988;2022-12-16T12:36:01;5.80;78.80
14140;DHT22;7150;53.514;9.988;2022-12-16T12:39:28;5.80;78.90
14140;DHT22;7150;53.514;9.988;2022-12-16T12:42:40;5.80;78.90
14140;DHT22;7150;53.514;9.988;2022-12-16T12:48:45;5.80;78.80
14140;DHT22;7150;53.514;9.988;2022-12-16T12:51:49;5.90;78.70
14140;DHT22;7150;53.514;9.988;2022-12-16T12:54:49;5.80;78.70
14140;DHT22;7150;53.514;9.988;2022-12-16T12:57:36;5.90;78.80
14140;DHT22;7150;53.514;9.988;2022-12-16T13:00:24;5.90;78.80
14140;DHT22;7150;53.514;9.988;2022-12-16T13:03:32;5.90;78.70
14140;DHT22;7150;53.514;9.988;2022-12-16T13:06:17;5.90;78.90
14140;DHT22;7150;53.514;9.988;2022-12-16T13:09:13;5.90;78.70
14140;DHT22;7150;53.514;9.988;2022-12-16T13:20:50;6.00;78.80
14140;DHT22;7150;53.514;9.988;2022-12-16T13:23:36;6.00;78.70
14140;DHT22;7150;53.514;9.988;2022-12-16T13:26:23;6.10;78.80
14140;DHT22;7150;53.514;9.988;2022-12-16T13:29:18;6.00;78.80
14140;DHT22;7150;53.514;9.988;2022-12-16T13:32:23;6.10;79.10
14140;DHT22;7150;53.514;9.988;2022-12-16T13:37:57;6.10;79.10
14140;DHT22;7150;53.514;9.988;2022-12-16T13:40:56;6.10;79.20
14140;DHT22;7150;53.514;9.988;2022-12-16T13:43:53;6.10;79.10
14140;DHT22;7150;53.514;9.988;2022-12-16T13:46:41;6.10;79.10
14140;DHT22;7150;53.514;9.988;2022-12-16T13:52:21;6.10;79.30
14140;DHT22;7150;53.514;9.988;2022-12-16T13:55:15;6.10;79.40
14140;DHT22;7150;53.514;9.988;2022-12-16T13:58:04;6.20;79.50
14140;DHT22;7150;53.514;9.988;2022-12-16T14:01:11;6.20;79.40
14140;DHT22;7150;53.514;9.988;2022-12-16T14:03:56;6.20;79.30
14140;DHT22;7150;53.514;9.988;2022-12-16T14:06:42;6.20;79.60
14140;DHT22;7150;53.514;9.988;2022-12-16T14:09:41;6.20;79.60
14140;DHT22;7150;53.514;9.988;2022-12-16T14:12:48;6.20;79.60
14140;DHT22;7150;53.514;9.988;2022-12-16T14:15:58;6.30;79.50
14140;DHT22;7150;53.514;9.988;2022-12-16T14:22:04;6.20;79.60
14140;DHT22;7150;53.514;9.988;2022-12-16T14:24:52;6.20;79.70
14140;DHT22;7150;53.514;9.988;2022-12-16T14:27:36;6.20;80.00
14140;DHT22;7150;53.514;9.988;2022-12-16T14:30:23;6.20;79.90
14140;DHT22;7150;53.514;9.988;2022-12-16T14:33:25;6.20;79.80
14140;DHT22;7150;53.514;9.988;2022-12-16T14:36:24;6.20;79.80
14140;DHT22;7150;53.514;9.988;2022-12-16T14:39:29;6.20;79.70
14140;DHT22;7150;53.514;9.988;2022-12-16T14:42:26;6.10;79.60
14140;DHT22;7150;53.514;9.988;2022-12-16T14:51:29;6.00;79.70
14140;DHT22;7150;53.514;9.988;2022-12-16T14:54:15;6.00;79.60
14140;DHT22;7150;53.514;9.988;2022-12-16T14:56:59;6.00;80.00
14140;DHT22;7150;53.514;9.988;2022-12-16T14:59:43;5.90;79.90
14140;DHT22;7150;53.514;9.988;2022-12-16T15:02:31;5.90;79.90
14140;DHT22;7150;53.514;9.988;2022-12-16T15:05:19;5.90;79.90
14140;DHT22;7150;53.514;9.988;2022-12-16T15:08:04;5.90;79.90
14140;DHT22;7150;53.514;9.988;2022-12-16T15:10:49;5.90;80.00
14140;DHT22;7150;53.514;9.988;2022-12-16T15:13:33;5.90;79.90
14140;DHT22;7150;53.514;9.988;2022-12-16T15:16:24;5.90;79.70
14140;DHT22;7150;53.514;9.988;2022-12-16T15:19:18;5.90;79.80
14140;DHT22;7150;53.514;9.988;2022-12-16T15:22:03;5.80;79.90
14140;DHT22;7150;53.514;9.988;2022-12-16T15:24:47;5.80;79.90
14140;DHT22;7150;53.514;9.988;2022-12-16T15:27:36;5.80;79.90
14140;DHT22;7150;53.514;9.988;2022-12-16T15:30:49;5.80;79.80
14140;DHT22;7150;53.514;9.988;2022-12-16T15:33:38;5.80;79.80
14140;DHT22;7150;53.514;9.988;2022-12-16T15:36:30;5.80;79.70
14140;DHT22;7150;53.514;9.988;2022-12-16T15:39:32;5.70;79.60
14140;DHT22;7150;53.514;9.988;2022-12-16T15:42:21;5.70;79.70
14140;DHT22;7150;53.514;9.988;2022-12-16T15:45:19;5.60;79.90
14140;DHT22;7150;53.514;9.988;2022-12-16T15:48:27;5.60;80.10
14140;DHT22;7150;53.514;9.988;2022-12-16T15:51:20;5.60;80.10
14140;DHT22;7150;53.514;9.988;2022-12-16T15:54:04;5.60;80.30
14140;DHT22;7150;53.514;9.988;2022-12-16T15:56:48;5.60;80.40
14140;DHT22;7150;53.514;9.988;2022-12-16T15:59:35;5.60;80.40
14140;DHT22;7150;53.514;9.988;2022-12-16T16:02:28;5.60;80.40
14140;DHT22;7150;53.514;9.988;2022-12-16T16:05:18;5.70;80.50
14140;DHT22;7150;53.514;9.988;2022-12-16T16:08:04;5.70;80.30
14140;DHT22;7150;53.514;9.988;2022-12-16T16:10:48;5.70;80.30
14140;DHT22;7150;53.514;9.988;2022-12-16T16:13:32;5.70;80.60
14140;DHT22;7150;53.514;9.988;2022-12-16T16:16:17;5.70;80.60
14140;DHT22;7150;53.514;9.988;2022-12-16T16:19:01;5.70;80.50
14140;DHT22;7150;53.514;9.988;2022-12-16T16:21:45;5.70;80.50
14140;DHT22;7150;53.514;9.988;2022-12-16T16:24:29;5.70;80.50
14140;DHT22;7150;53.514;9.988;2022-12-16T16:27:14;5.80;80.50
14140;DHT22;7150;53.514;9.988;2022-12-16T16:29:59;5.80;80.50
14140;DHT22;7150;53.514;9.988;2022-12-16T16:32:44;5.80;80.60
14140;DHT22;7150;53.514;9.988;2022-12-16T16:35:30;5.80;80.50
14140;DHT22;7150;53.514;9.988;2022-12-16T16:38:14;5.80;80.60
14140;DHT22;7150;53.514;9.988;2022-12-16T16:40:58;5.70;80.60
14140;DHT22;7150;53.514;9.988;2022-12-16T16:43:42;5.80;80.50
14140;DHT22;7150;53.514;9.988;2022-12-16T16:49:23;5.80;80.30
14140;DHT22;7150;53.514;9.988;2022-12-16T16:52:13;5.80;80.10
14140;DHT22;7150;53.514;9.988;2022-12-16T16:54:57;5.80;79.80
14140;DHT22;7150;53.514;9.988;2022-12-16T16:57:41;5.80;79.80
14140;DHT22;7150;53.514;9.988;2022-12-16T17:00:26;5.70;79.80
14140;DHT22;7150;53.514;9.988;2022-12-16T17:03:10;5.70;79.80
14140;DHT22;7150;53.514;9.988;2022-12-16T17:05:54;5.70;79.70
14140;DHT22;7150;53.514;9.988;2022-12-16T17:08:38;5.70;79.80
14140;DHT22;7150;53.514;9.988;2022-12-16T17:11:26;5.70;79.80
14140;DHT22;7150;53.514;9.988;2022-12-16T17:14:12;5.70;79.60
14140;DHT22;7150;53.514;9.988;2022-12-16T17:16:57;5.70;79.60
14140;DHT22;7150;53.514;9.988;2022-12-16T17:19:41;5.60;79.70
14140;DHT22;7150;53.514;9.988;2022-12-16T17:22:25;5.60;79.80
14140;DHT22;7150;53.514;9.988;2022-12-16T17:25:09;5.60;79.90
14140;DHT22;7150;53.514;9.988;2022-12-16T17:27:53;5.60;80.00
14140;DHT22;7150;53.514;9.988;2022-12-16T17:30:37;5.50;80.00
14140;DHT22;7150;53.514;9.988;2022-12-16T17:33:22;5.60;80.10
14140;DHT22;7150;53.514;9.988;2022-12-16T17:36:10;5.50;80.00
14140;DHT22;7150;53.514;9.988;2022-12-16T17:38:55;5.50;80.00
14140;DHT22;7150;53.514;9.988;2022-12-16T17:41:39;5.60;80.30
14140;DHT22;7150;53.514;9.988;2022-12-16T17:44:23;5.50;80.30
14140;DHT22;7150;53.514;9.988;2022-12-16T17:47:07;5.60;80.20
14140;DHT22;7150;53.514;9.988;2022-12-16T17:49:51;5.60;80.10
14140;DHT22;7150;53.514;9.988;2022-12-16T17:52:35;5.60;80.30
14140;DHT22;7150;53.514;9.988;2022-12-16T17:55:19;5.60;80.30
14140;DHT22;7150;53.514;9.988;2022-12-16T17:58:03;5.60;80.50
14140;DHT22;7150;53.514;9.988;2022-12-16T18:00:47;5.70;80.60
14140;DHT22;7150;53.514;9.988;2022-12-16T18:03:32;5.60;80.60
14140;DHT22;7150;53.514;9.988;2022-12-16T18:06:16;5.70;80.80
14140;DHT22;7150;53.514;9.988;2022-12-16T18:09:10;5.70;80.70
14140;DHT22;7150;53.514;9.988;2022-12-16T18:11:54;5.70;80.70
14140;DHT22;7150;53.514;9.988;2022-12-16T18:14:38;5.70;80.60
14140;DHT22;7150;53.514;9.988;2022-12-16T18:17:22;5.70;80.50
14140;DHT22;7150;53.514;9.988;2022-12-16T18:20:06;5.70;80.60
14140;DHT22;7150;53.514;9.988;2022-12-16T18:22:52;5.70;80.50
14140;DHT22;7150;53.514;9.988;2022-12-16T18:25:36;5.70;80.50
14140;DHT22;7150;53.514;9.988;2022-12-16T18:28:20;5.70;80.60
14140;DHT22;7150;53.514;9.988;2022-12-16T18:31:04;5.80;80.80
14140;DHT22;7150;53.514;9.988;2022-12-16T18:33:49;6.00;80.90
14140;DHT22;7150;53.514;9.988;2022-12-16T18:36:33;5.80;80.70
14140;DHT22;7150;53.514;9.988;2022-12-16T18:39:17;5.80;80.60
14140;DHT22;7150;53.514;9.988;2022-12-16T18:42:02;5.80;80.70
14140;DHT22;7150;53.514;9.988;2022-12-16T18:44:48;5.80;80.80
14140;DHT22;7150;53.514;9.988;2022-12-16T18:47:32;5.90;80.80
14140;DHT22;7150;53.514;9.988;2022-12-16T18:50:16;5.80;80.60
14140;DHT22;7150;53.514;9.988;2022-12-16T18:53:00;5.80;80.90
14140;DHT22;7150;53.514;9.988;2022-12-16T18:55:44;5.80;81.00
14140;DHT22;7150;53.514;9.988;2022-12-16T18:58:28;5.90;80.90
14140;DHT22;7150;53.514;9.988;2022-12-16T19:01:12;5.90;81.00
14140;DHT22;7150;53.514;9.988;2022-12-16T19:03:57;5.90;81.00
14140;DHT22;7150;53.514;9.988;2022-12-16T19:06:41;5.90;81.00
14140;DHT22;7150;53.514;9.988;2022-12-16T19:09:26;5.90;81.00